Time;durP1;ratioP1;P1;durP2;ratioP2;P2;SDS_P1;SDS_P2;PMS_P1;PMS_P2;Temp;Humidity;BMP_temperature;BMP_pressure;BME280_temperature;BME280_humidity;BME280_pressure;Samples;Min_cycle;Max_cycle;Signal;HPM_P1;HPM_P2
2023/03/02 00:01:42;;;;;;;15.65;6.70;;;-0.60;99.90;;;;;;5110817;27;20039;-63
2023/03/02 00:04:13;;;;;;;15.25;7.18;;;-0.60;99.90;;;;;;5113559;27;20127;-62
2023/03/02 00:06:39;;;;;;;14.20;6.10;;;-0.70;99.90;;;;;;5111681;27;20040;-56
2023/03/02 00:09:05;;;;;;;18.58;6.95;;;-0.70;99.90;;;;;;5108086;27;20491;-60
2023/03/02 00:11:32;;;;;;;14.13;6.70;;;-0.70;99.90;;;;;;5113775;27;20035;-56
2023/03/02 00:13:58;;;;;;;24.17;7.55;;;-0.70;99.90;;;;;;5109541;27;20150;-62
2023/03/02 00:16:24;;;;;;;15.23;6.60;;;-0.70;99.90;;;;;;5109119;27;20830;-63
2023/03/02 00:18:49;;;;;;;13.18;6.75;;;-0.80;99.90;;;;;;5094899;28;20036;-62
2023/03/02 00:21:15;;;;;;;13.02;6.78;;;-0.70;99.90;;;;;;5087318;28;20050;-63
2023/03/02 00:23:41;;;;;;;13.30;6.63;;;-0.80;99.90;;;;;;5094465;28;20054;-63
2023/03/02 00:26:07;;;;;;;13.82;5.93;;;-0.80;99.90;;;;;;5098257;28;20753;-63
2023/03/02 00:28:33;;;;;;;18.08;7.38;;;-0.70;99.90;;;;;;5089901;28;20051;-67
2023/03/02 00:30:59;;;;;;;14.38;6.70;;;-0.80;99.90;;;;;;5099753;28;20084;-63
2023/03/02 00:33:24;;;;;;;17.10;6.88;;;-0.80;99.90;;;;;;5089002;28;20039;-60
2023/03/02 00:35:50;;;;;;;16.92;6.63;;;-0.80;99.90;;;;;;5095930;28;20075;-64
2023/03/02 00:38:16;;;;;;;19.58;7.13;;;-0.80;99.90;;;;;;5089719;28;20411;-64
2023/03/02 00:40:46;;;;;;;14.20;7.35;;;-0.90;99.90;;;;;;5090420;28;20043;-62
2023/03/02 00:43:12;;;;;;;15.25;7.47;;;-1.00;99.90;;;;;;5088326;27;20118;-63
2023/03/02 00:45:38;;;;;;;14.25;7.20;;;-1.10;99.90;;;;;;5088363;28;20110;-62
2023/03/02 00:48:03;;;;;;;13.23;7.40;;;-1.10;99.90;;;;;;5087912;28;20056;-62
2023/03/02 00:50:29;;;;;;;18.63;7.05;;;-1.10;99.90;;;;;;5091960;28;20135;-63
2023/03/02 00:52:55;;;;;;;18.00;6.72;;;-1.10;99.90;;;;;;5091305;28;20040;-64
2023/03/02 00:55:20;;;;;;;17.92;7.75;;;-1.10;99.90;;;;;;5095216;28;20055;-62
2023/03/02 00:57:53;;;;;;;15.73;7.60;;;-1.10;99.90;;;;;;5091377;28;20235;-63
2023/03/02 01:00:23;;;;;;;15.80;7.65;;;-1.20;99.90;;;;;;5086963;28;20116;-62
2023/03/02 01:02:49;;;;;;;16.88;8.55;;;-1.30;99.90;;;;;;5093351;28;20036;-62
2023/03/02 01:05:15;;;;;;;16.92;7.57;;;-1.20;99.90;;;;;;5085061;28;20065;-64
2023/03/02 01:07:41;;;;;;;16.05;7.80;;;-1.20;99.90;;;;;;5089389;28;20048;-56
2023/03/02 01:10:08;;;;;;;14.70;6.72;;;-1.20;99.90;;;;;;5091463;28;20043;-61
2023/03/02 01:12:34;;;;;;;16.25;7.30;;;-1.30;99.90;;;;;;5092078;28;20035;-61
2023/03/02 01:15:00;;;;;;;14.02;7.00;;;-1.30;99.90;;;;;;5085270;28;20043;-62
2023/03/02 01:17:26;;;;;;;14.93;6.60;;;-1.30;99.90;;;;;;5090693;28;20051;-62
2023/03/02 01:19:52;;;;;;;17.88;7.57;;;-1.30;99.90;;;;;;5084351;28;20128;-62
2023/03/02 01:22:19;;;;;;;13.80;6.88;;;-1.40;99.90;;;;;;5090442;28;20123;-62
2023/03/02 01:24:44;;;;;;;16.42;7.45;;;-1.40;99.90;;;;;;5087672;28;20028;-61
2023/03/02 01:27:10;;;;;;;16.90;8.15;;;-1.40;99.90;;;;;;5089232;28;20047;-62
2023/03/02 01:29:36;;;;;;;16.48;8.23;;;-1.50;99.90;;;;;;5087055;28;20440;-61
2023/03/02 01:32:03;;;;;;;12.38;6.95;;;-1.50;99.90;;;;;;5086791;28;20028;-61
2023/03/02 01:34:28;;;;;;;21.02;7.75;;;-1.60;99.90;;;;;;5089933;28;20043;-63
2023/03/02 01:36:54;;;;;;;13.65;6.88;;;-1.60;99.90;;;;;;5092629;28;20420;-62
2023/03/02 01:39:21;;;;;;;20.73;8.02;;;-1.60;99.90;;;;;;5088680;28;20028;-61
2023/03/02 01:41:48;;;;;;;20.02;9.25;;;-1.60;99.90;;;;;;5093814;27;20045;-62
2023/03/02 01:44:35;;;;;;;18.20;7.40;;;-1.70;99.90;;;;;;5088795;28;20032;-62
2023/03/02 01:47:24;;;;;;;12.60;6.55;;;-1.70;99.90;;;;;;5090088;28;20115;-62
2023/03/02 01:49:57;;;;;;;14.93;7.18;;;-1.70;99.90;;;;;;5093184;28;20050;-63
2023/03/02 01:52:25;;;;;;;15.48;7.28;;;-1.80;99.90;;;;;;5094772;28;20055;-62
2023/03/02 01:54:55;;;;;;;17.17;7.63;;;-1.80;99.90;;;;;;5100901;27;20035;-63
2023/03/02 01:57:25;;;;;;;13.52;6.82;;;-1.80;99.90;;;;;;5093760;28;20062;-62
2023/03/02 01:59:55;;;;;;;13.57;6.90;;;-1.90;99.90;;;;;;5089654;28;20040;-63
2023/03/02 02:02:20;;;;;;;16.85;7.88;;;-1.90;99.90;;;;;;5087951;27;20067;-62
2023/03/02 02:04:47;;;;;;;15.90;7.25;;;-1.90;99.90;;;;;;5074829;28;20890;-63
2023/03/02 02:07:13;;;;;;;18.00;8.00;;;-1.90;99.90;;;;;;5087652;28;20050;-61
2023/03/02 02:09:43;;;;;;;13.70;7.38;;;-2.00;99.90;;;;;;5090525;28;20040;-64
2023/03/02 02:12:17;;;;;;;16.80;8.00;;;-2.10;99.90;;;;;;5091298;28;20819;-63
2023/03/02 02:14:44;;;;;;;17.38;7.95;;;-2.10;99.90;;;;;;5087501;28;21643;-65
2023/03/02 02:17:11;;;;;;;15.85;7.28;;;-2.10;99.90;;;;;;5088530;28;20083;-66
2023/03/02 02:19:49;;;;;;;16.52;7.43;;;-2.10;99.90;;;;;;5084915;28;20122;-65
2023/03/02 02:22:25;;;;;;;14.93;7.32;;;-2.10;99.90;;;;;;5088050;28;20525;-62
2023/03/02 02:24:57;;;;;;;17.60;7.85;;;-2.10;99.90;;;;;;5090709;28;20031;-62
2023/03/02 02:27:28;;;;;;;15.60;7.70;;;-2.10;99.90;;;;;;5089369;28;20048;-63
2023/03/02 02:29:57;;;;;;;17.05;7.57;;;-2.10;99.90;;;;;;5087038;28;20047;-64
2023/03/02 02:32:34;;;;;;;13.20;7.45;;;-2.10;99.90;;;;;;5088065;28;20047;-63
2023/03/02 02:35:16;;;;;;;14.70;7.57;;;-2.10;99.90;;;;;;5092238;28;20032;-59
2023/03/02 02:37:56;;;;;;;16.83;7.20;;;-2.20;99.90;;;;;;5093792;28;20056;-63
2023/03/02 02:40:54;;;;;;;17.23;7.35;;;-2.20;99.90;;;;;;5089982;28;20155;-61
2023/03/02 02:43:21;;;;;;;13.82;7.22;;;-2.30;99.90;;;;;;5087381;28;20040;-63
2023/03/02 02:45:51;;;;;;;16.33;7.85;;;-2.30;99.90;;;;;;5087408;28;20126;-63
2023/03/02 02:48:19;;;;;;;14.70;7.68;;;-2.20;99.90;;;;;;5090400;28;20449;-63
2023/03/02 02:50:46;;;;;;;20.90;8.63;;;-2.20;99.90;;;;;;5091453;28;20415;-63
2023/03/02 02:53:33;;;;;;;17.13;8.23;;;-2.20;99.90;;;;;;5088770;28;20036;-63
2023/03/02 02:56:01;;;;;;;19.20;7.57;;;-2.40;99.90;;;;;;5086083;28;20044;-63
2023/03/02 02:58:50;;;;;;;17.60;8.25;;;-2.40;99.90;;;;;;5096225;28;20474;-65
2023/03/02 03:01:24;;;;;;;18.08;7.53;;;-2.40;99.90;;;;;;5087282;28;20031;-59
2023/03/02 03:03:53;;;;;;;13.80;7.07;;;-2.40;99.90;;;;;;5081533;28;20036;-63
2023/03/02 03:06:24;;;;;;;21.35;7.65;;;-2.30;99.90;;;;;;5088252;28;20040;-62
2023/03/02 03:08:54;;;;;;;13.35;6.90;;;-2.30;99.90;;;;;;5086686;28;20119;-60
2023/03/02 03:11:29;;;;;;;12.70;6.55;;;-2.40;99.90;;;;;;5091874;28;20127;-63
2023/03/02 03:14:01;;;;;;;12.88;6.82;;;-2.50;99.90;;;;;;5085978;28;20078;-62
2023/03/02 03:16:29;;;;;;;12.98;7.00;;;-2.50;99.90;;;;;;5090281;28;20055;-63
2023/03/02 03:19:02;;;;;;;14.75;7.38;;;-2.50;99.90;;;;;;5093355;28;20032;-63
2023/03/02 03:21:27;;;;;;;19.15;8.23;;;-2.50;99.90;;;;;;5090553;28;20434;-63
2023/03/02 03:23:53;;;;;;;15.27;7.25;;;-2.50;99.90;;;;;;5089450;28;20050;-58
2023/03/02 03:26:19;;;;;;;17.27;8.40;;;-2.40;99.90;;;;;;5090477;28;20036;-63
2023/03/02 03:28:45;;;;;;;16.55;7.75;;;-2.40;99.90;;;;;;5094104;28;20043;-61
2023/03/02 03:31:11;;;;;;;15.60;8.18;;;-2.30;99.90;;;;;;5092402;28;20725;-63
2023/03/02 03:33:36;;;;;;;19.83;7.70;;;-2.30;99.90;;;;;;5090257;28;20040;-64
2023/03/02 03:36:02;;;;;;;17.98;8.23;;;-2.30;99.90;;;;;;5092743;28;20717;-62
2023/03/02 03:38:29;;;;;;;17.00;7.63;;;-2.20;99.90;;;;;;5090534;28;20058;-62
2023/03/02 03:40:54;;;;;;;13.70;7.22;;;-2.30;99.90;;;;;;5091443;28;20140;-62
2023/03/02 03:43:20;;;;;;;14.68;7.80;;;-2.40;99.90;;;;;;5087763;28;20479;-64
2023/03/02 03:45:46;;;;;;;15.00;7.38;;;-2.40;99.90;;;;;;5093619;28;20070;-62
2023/03/02 03:48:11;;;;;;;15.80;7.95;;;-2.40;99.90;;;;;;5088060;28;20550;-63
2023/03/02 03:50:37;;;;;;;18.40;8.18;;;-2.50;99.90;;;;;;5089445;28;20028;-62
2023/03/02 03:53:02;;;;;;;16.33;8.40;;;-2.50;99.90;;;;;;5092624;28;20754;-62
2023/03/02 03:55:29;;;;;;;17.40;8.43;;;-2.60;99.90;;;;;;5093715;27;20088;-63
2023/03/02 03:57:54;;;;;;;17.98;8.07;;;-2.60;99.90;;;;;;5089057;28;20032;-60
2023/03/02 04:00:21;;;;;;;22.50;8.18;;;-2.70;99.90;;;;;;5095339;28;20657;-63
2023/03/02 04:02:47;;;;;;;15.48;7.90;;;-2.60;99.90;;;;;;5089716;28;20036;-63
2023/03/02 04:05:13;;;;;;;19.40;8.05;;;-2.50;99.90;;;;;;5085996;28;20143;-61
2023/03/02 04:07:39;;;;;;;16.05;7.95;;;-2.50;99.90;;;;;;5087312;28;20120;-64
2023/03/02 04:10:07;;;;;;;24.50;9.30;;;-2.70;99.90;;;;;;5090994;28;20051;-65
2023/03/02 04:12:34;;;;;;;18.63;7.95;;;-2.70;99.90;;;;;;5092679;28;20040;-66
2023/03/02 04:15:01;;;;;;;17.15;8.48;;;-2.60;99.90;;;;;;5093196;28;20122;-62
2023/03/02 04:17:27;;;;;;;20.67;9.13;;;-2.80;99.90;;;;;;5094602;28;20043;-64
2023/03/02 04:19:53;;;;;;;23.92;8.32;;;-2.70;99.90;;;;;;5086212;28;20059;-61
2023/03/02 04:22:19;;;;;;;18.85;8.13;;;-2.70;99.90;;;;;;5090507;28;20096;-63
2023/03/02 04:24:45;;;;;;;15.32;8.05;;;-2.70;99.90;;;;;;5092644;28;20055;-63
2023/03/02 04:27:11;;;;;;;13.35;7.38;;;-2.70;99.90;;;;;;5091030;28;20128;-63
2023/03/02 04:29:37;;;;;;;19.48;8.35;;;-2.60;99.90;;;;;;5094942;28;20115;-63
2023/03/02 04:32:03;;;;;;;19.02;8.95;;;-2.60;99.90;;;;;;5096154;28;20102;-63
2023/03/02 04:34:29;;;;;;;14.80;7.13;;;-2.60;99.90;;;;;;5091489;28;20564;-63
2023/03/02 04:36:54;;;;;;;19.67;8.43;;;-2.60;99.90;;;;;;5093196;28;20040;-61
2023/03/02 04:39:20;;;;;;;17.85;8.15;;;-2.60;99.90;;;;;;5091319;28;20875;-62
2023/03/02 04:41:47;;;;;;;18.48;8.55;;;-2.60;99.90;;;;;;5094340;28;20047;-61
2023/03/02 04:44:14;;;;;;;16.98;8.00;;;-2.60;99.90;;;;;;5092181;28;20138;-62
2023/03/02 04:46:40;;;;;;;17.35;7.35;;;-2.70;99.90;;;;;;5092507;28;20078;-63
2023/03/02 04:49:06;;;;;;;14.35;7.20;;;-2.60;99.90;;;;;;5094223;28;20080;-63
2023/03/02 04:51:35;;;;;;;14.43;7.07;;;-2.60;99.90;;;;;;5092185;28;20518;-62
2023/03/02 04:54:09;;;;;;;17.17;7.40;;;-2.50;99.90;;;;;;5092424;28;20028;-64
2023/03/02 04:56:35;;;;;;;20.70;8.18;;;-2.50;99.90;;;;;;5091656;28;20089;-63
2023/03/02 04:59:00;;;;;;;15.32;6.95;;;-2.50;99.90;;;;;;5087640;28;20035;-61
2023/03/02 05:01:26;;;;;;;17.42;7.93;;;-2.50;99.90;;;;;;5085908;28;20041;-62
2023/03/02 05:03:52;;;;;;;17.42;7.80;;;-2.40;99.90;;;;;;5087141;28;20067;-61
2023/03/02 05:06:20;;;;;;;15.00;7.63;;;-2.40;99.90;;;;;;5091619;28;20058;-61
2023/03/02 05:08:46;;;;;;;14.98;8.30;;;-2.40;99.90;;;;;;5088452;28;20044;-63
2023/03/02 05:11:20;;;;;;;18.20;8.15;;;-2.40;99.90;;;;;;5088026;27;20040;-62
2023/03/02 05:13:47;;;;;;;16.10;7.90;;;-2.50;99.90;;;;;;5089352;28;20040;-63
2023/03/02 05:16:13;;;;;;;15.90;7.28;;;-2.50;99.90;;;;;;5090030;28;20047;-64
2023/03/02 05:18:39;;;;;;;14.98;8.23;;;-2.60;99.90;;;;;;5087771;28;20134;-62
2023/03/02 05:21:05;;;;;;;14.98;7.82;;;-2.70;99.90;;;;;;5093064;28;20039;-61
2023/03/02 05:23:31;;;;;;;17.05;8.13;;;-2.70;99.90;;;;;;5103990;27;20520;-62
2023/03/02 05:25:57;;;;;;;17.05;8.43;;;-2.80;99.90;;;;;;5093173;28;20090;-63
2023/03/02 05:28:25;;;;;;;16.75;7.72;;;-2.80;99.90;;;;;;5093012;28;20044;-62
2023/03/02 05:30:51;;;;;;;13.88;7.35;;;-2.70;99.90;;;;;;5088118;28;20467;-61
2023/03/02 05:33:18;;;;;;;15.45;7.38;;;-2.70;99.90;;;;;;5085674;28;20032;-61
2023/03/02 05:35:44;;;;;;;20.58;7.72;;;-2.60;99.90;;;;;;5096355;27;20046;-64
2023/03/02 05:38:10;;;;;;;15.02;6.95;;;-2.60;99.90;;;;;;5095390;28;20400;-63
2023/03/02 05:40:37;;;;;;;17.17;7.45;;;-2.50;99.90;;;;;;5100107;28;20040;-62
2023/03/02 05:43:03;;;;;;;17.95;7.65;;;-2.50;99.90;;;;;;5087782;28;20104;-63
2023/03/02 05:45:33;;;;;;;16.08;8.18;;;-2.40;99.90;;;;;;5088926;28;20048;-62
2023/03/02 05:48:00;;;;;;;16.98;7.88;;;-2.50;99.90;;;;;;5090025;28;20484;-63
2023/03/02 05:50:25;;;;;;;15.27;7.18;;;-2.50;99.90;;;;;;5086955;28;20601;-64
2023/03/02 05:52:51;;;;;;;15.45;7.35;;;-2.50;99.90;;;;;;5085730;28;20044;-63
2023/03/02 05:55:17;;;;;;;15.63;8.05;;;-2.50;99.90;;;;;;5087013;28;20027;-61
2023/03/02 05:57:44;;;;;;;18.77;8.25;;;-2.50;99.90;;;;;;5089914;28;20050;-62
2023/03/02 06:00:12;;;;;;;19.45;8.48;;;-2.50;99.90;;;;;;5088839;27;20472;-62
2023/03/02 06:02:38;;;;;;;16.02;7.90;;;-2.50;99.90;;;;;;5091081;28;20064;-62
2023/03/02 06:05:10;;;;;;;15.60;7.32;;;-2.50;99.90;;;;;;5089315;28;20433;-64
2023/03/02 06:07:36;;;;;;;19.15;7.88;;;-2.50;99.90;;;;;;5086099;28;20154;-63
2023/03/02 06:10:03;;;;;;;16.00;8.70;;;-2.40;99.90;;;;;;5096349;28;20057;-63
2023/03/02 06:12:29;;;;;;;19.38;9.15;;;-2.40;99.90;;;;;;5095456;28;20646;-63
2023/03/02 06:14:54;;;;;;;21.05;8.05;;;-2.30;99.90;;;;;;5093797;28;20119;-60
2023/03/02 06:17:20;;;;;;;15.88;8.27;;;-2.40;99.90;;;;;;5095456;28;20513;-63
2023/03/02 06:19:45;;;;;;;17.15;8.18;;;-2.40;99.90;;;;;;5097669;28;20449;-62
2023/03/02 06:22:11;;;;;;;16.30;8.57;;;-2.30;99.90;;;;;;5087588;28;20476;-62
2023/03/02 06:24:37;;;;;;;17.73;8.65;;;-2.20;99.90;;;;;;5091824;28;20031;-63
2023/03/02 06:27:02;;;;;;;18.67;8.20;;;-2.20;99.90;;;;;;5086813;28;20085;-63
2023/03/02 06:29:28;;;;;;;16.00;8.50;;;-2.20;99.90;;;;;;5090109;28;20047;-62
2023/03/02 06:31:54;;;;;;;19.27;8.75;;;-2.20;99.90;;;;;;5093700;28;20151;-62
2023/03/02 06:34:19;;;;;;;16.33;8.20;;;-2.20;99.90;;;;;;5091615;28;20042;-62
2023/03/02 06:36:45;;;;;;;18.15;8.57;;;-2.10;99.90;;;;;;5093608;28;20036;-62
2023/03/02 06:39:14;;;;;;;24.38;9.45;;;-2.10;99.90;;;;;;5093513;28;20063;-62
2023/03/02 06:41:43;;;;;;;19.20;8.85;;;-2.10;99.90;;;;;;5093156;28;20066;-63
2023/03/02 06:44:09;;;;;;;18.55;8.30;;;-2.10;99.90;;;;;;5088041;28;20051;-62
2023/03/02 06:46:35;;;;;;;17.65;7.93;;;-2.10;99.90;;;;;;5088442;28;20038;-61
2023/03/02 06:49:01;;;;;;;14.48;7.00;;;-2.00;99.90;;;;;;5089682;28;20036;-62
2023/03/02 06:51:27;;;;;;;16.85;8.02;;;-1.90;99.90;;;;;;5088739;28;20031;-61
2023/03/02 06:53:53;;;;;;;16.95;8.63;;;-1.80;99.90;;;;;;5087696;28;20039;-64
2023/03/02 06:56:18;;;;;;;15.00;7.28;;;-1.50;99.90;;;;;;5088465;28;20039;-62
2023/03/02 06:58:44;;;;;;;15.48;7.53;;;-0.80;99.90;;;;;;5102502;28;20023;-64
2023/03/02 07:01:09;;;;;;;19.30;8.23;;;-0.20;99.90;;;;;;5090473;28;20050;-62
2023/03/02 07:03:35;;;;;;;15.05;7.60;;;0.00;99.90;;;;;;5096913;28;20170;-62
2023/03/02 07:06:01;;;;;;;14.63;7.05;;;0.50;99.90;;;;;;5096308;28;20128;-63
2023/03/02 07:08:27;;;;;;;13.80;7.15;;;1.10;99.90;;;;;;5096188;28;20717;-64
2023/03/02 07:10:53;;;;;;;14.27;7.93;;;1.60;99.90;;;;;;5089958;28;20571;-63
2023/03/02 07:13:19;;;;;;;17.13;8.68;;;1.80;99.90;;;;;;5084935;28;20051;-65
2023/03/02 07:15:45;;;;;;;16.23;7.70;;;1.50;99.90;;;;;;5088160;28;20106;-63
2023/03/02 07:18:11;;;;;;;18.73;9.10;;;1.30;99.90;;;;;;5087657;28;20067;-62
2023/03/02 07:20:37;;;;;;;15.90;8.77;;;1.70;99.90;;;;;;5090122;28;20036;-63
2023/03/02 07:23:03;;;;;;;22.13;11.38;;;1.90;99.90;;;;;;5091166;28;20825;-64
2023/03/02 07:25:29;;;;;;;18.38;10.32;;;1.80;99.90;;;;;;5088274;28;20047;-63
2023/03/02 07:27:55;;;;;;;19.45;9.43;;;1.90;99.90;;;;;;5087722;28;20040;-63
2023/03/02 07:30:20;;;;;;;16.08;8.93;;;2.20;99.90;;;;;;5092003;28;20070;-63
2023/03/02 07:32:50;;;;;;;17.00;8.30;;;2.50;99.90;;;;;;5090717;28;20111;-63
2023/03/02 07:35:16;;;;;;;17.85;7.82;;;2.70;99.90;;;;;;5094090;28;20188;-60
2023/03/02 07:37:42;;;;;;;20.23;8.73;;;2.70;99.90;;;;;;5093591;28;20035;-63
2023/03/02 07:40:10;;;;;;;16.17;7.68;;;2.40;99.80;;;;;;5086168;27;20036;-68
2023/03/02 07:42:36;;;;;;;18.52;9.02;;;2.30;99.80;;;;;;5100522;27;20046;-67
2023/03/02 07:45:03;;;;;;;16.02;7.65;;;2.40;99.90;;;;;;5089092;28;20476;-63
2023/03/02 07:47:29;;;;;;;20.77;8.07;;;2.10;99.80;;;;;;5093289;28;20079;-64
2023/03/02 07:49:54;;;;;;;20.58;7.50;;;2.10;99.60;;;;;;5092759;28;20063;-64
2023/03/02 07:52:20;;;;;;;20.55;8.48;;;2.10;98.40;;;;;;5090311;28;20118;-58
2023/03/02 07:54:46;;;;;;;14.63;7.82;;;1.90;98.90;;;;;;5088844;28;20089;-63
2023/03/02 07:57:14;;;;;;;15.65;6.88;;;2.00;97.70;;;;;;5090923;28;20713;-62
2023/03/02 07:59:41;;;;;;;12.98;6.40;;;2.30;97.30;;;;;;5091914;28;20040;-62
2023/03/02 08:02:13;;;;;;;15.43;7.35;;;2.60;94.10;;;;;;5093147;27;20028;-61
2023/03/02 08:04:39;;;;;;;13.40;6.60;;;2.70;94.10;;;;;;5102249;28;20070;-62
2023/03/02 08:07:04;;;;;;;14.27;6.53;;;3.10;93.70;;;;;;5098980;28;20052;-62
2023/03/02 08:09:30;;;;;;;13.57;6.10;;;3.50;93.00;;;;;;5096065;28;20257;-62
2023/03/02 08:11:55;;;;;;;13.68;6.30;;;3.90;90.60;;;;;;5099707;28;20541;-63
2023/03/02 08:14:21;;;;;;;13.73;6.95;;;4.10;90.30;;;;;;5092792;28;20032;-62
2023/03/02 08:16:47;;;;;;;14.05;6.72;;;4.20;90.20;;;;;;5091622;28;20051;-62
2023/03/02 08:19:13;;;;;;;13.82;6.35;;;4.10;90.40;;;;;;5095871;28;20064;-64
2023/03/02 08:21:38;;;;;;;16.60;6.43;;;4.00;86.10;;;;;;5092051;28;20082;-62
2023/03/02 08:24:04;;;;;;;10.85;6.50;;;4.40;88.10;;;;;;5095347;27;20027;-61
2023/03/02 08:26:30;;;;;;;9.75;5.45;;;4.50;85.30;;;;;;5093990;28;20100;-62
2023/03/02 08:28:56;;;;;;;14.93;5.90;;;4.40;85.20;;;;;;5096742;28;20625;-64
2023/03/02 08:31:21;;;;;;;10.82;4.97;;;3.80;87.60;;;;;;5094282;28;20457;-64
2023/03/02 08:33:47;;;;;;;14.85;6.38;;;3.40;90.00;;;;;;5097759;27;20032;-62
2023/03/02 08:36:16;;;;;;;11.55;5.95;;;3.10;90.40;;;;;;5098417;28;20032;-61
2023/03/02 08:38:42;;;;;;;14.13;6.38;;;2.80;90.80;;;;;;5087319;28;20036;-63
2023/03/02 08:41:11;;;;;;;12.15;6.00;;;2.60;90.40;;;;;;5092665;28;20066;-62
2023/03/02 08:43:37;;;;;;;11.02;5.55;;;2.40;91.20;;;;;;5090477;28;20097;-62
2023/03/02 08:46:02;;;;;;;11.82;5.60;;;2.40;91.40;;;;;;5096089;28;20035;-62
2023/03/02 08:48:29;;;;;;;11.35;5.43;;;2.40;90.90;;;;;;5091262;28;20051;-63
2023/03/02 08:51:10;;;;;;;12.15;6.15;;;2.40;90.90;;;;;;5093603;28;20511;-62
2023/03/02 08:53:38;;;;;;;13.00;6.97;;;2.30;91.30;;;;;;5099323;28;20043;-63
2023/03/02 08:56:07;;;;;;;9.98;5.47;;;2.40;90.70;;;;;;5100170;28;20035;-67
2023/03/02 08:58:33;;;;;;;12.40;5.28;;;2.50;91.30;;;;;;5100561;28;20085;-62
2023/03/02 09:00:58;;;;;;;9.73;5.20;;;2.60;91.30;;;;;;5100515;28;20043;-63
2023/03/02 09:03:24;;;;;;;11.23;5.85;;;2.60;91.60;;;;;;5095948;28;20035;-63
2023/03/02 09:05:50;;;;;;;11.70;5.53;;;2.60;91.10;;;;;;5091997;28;20035;-63
2023/03/02 09:08:15;;;;;;;12.13;6.13;;;2.70;91.10;;;;;;5097237;28;20100;-62
2023/03/02 09:10:41;;;;;;;13.70;6.00;;;2.70;90.90;;;;;;5092329;28;20040;-62
2023/03/02 09:13:06;;;;;;;11.43;5.45;;;2.90;91.80;;;;;;5094291;28;20043;-63
2023/03/02 09:15:32;;;;;;;13.52;5.65;;;3.00;90.80;;;;;;5094304;28;20113;-62
2023/03/02 09:17:58;;;;;;;14.20;6.40;;;3.10;90.80;;;;;;5100271;28;20050;-63
2023/03/02 09:20:23;;;;;;;12.35;5.60;;;3.00;90.60;;;;;;5104624;28;20071;-63
2023/03/02 09:22:49;;;;;;;11.15;5.10;;;3.10;91.00;;;;;;5093328;28;20052;-63
2023/03/02 09:25:19;;;;;;;15.75;6.57;;;3.20;90.60;;;;;;5093392;28;20036;-63
2023/03/02 09:27:45;;;;;;;13.85;5.68;;;3.10;90.80;;;;;;5091797;28;20157;-63
2023/03/02 09:30:13;;;;;;;11.70;5.68;;;3.20;90.40;;;;;;5106697;27;20047;-63
2023/03/02 09:32:39;;;;;;;11.60;5.82;;;3.30;88.50;;;;;;5093605;27;20731;-63
2023/03/02 09:35:05;;;;;;;14.88;5.95;;;3.30;87.70;;;;;;5101776;28;20097;-62
2023/03/02 09:37:30;;;;;;;11.18;4.95;;;3.40;87.50;;;;;;5092133;28;20047;-61
2023/03/02 09:39:56;;;;;;;11.32;5.55;;;3.50;89.30;;;;;;5091610;28;20123;-62
2023/03/02 09:42:51;;;;;;;11.75;5.50;;;3.50;89.90;;;;;;5086311;28;20044;-70
2023/03/02 09:45:30;;;;;;;12.07;5.43;;;3.60;89.10;;;;;;5088355;28;20031;-64
2023/03/02 09:48:04;;;;;;;12.48;5.25;;;3.80;87.70;;;;;;5093684;28;20056;-63
2023/03/02 09:50:46;;;;;;;9.18;4.25;;;3.80;85.70;;;;;;5097848;28;20044;-65
2023/03/02 09:53:38;;;;;;;9.52;5.32;;;3.90;86.20;;;;;;5085459;28;20040;-63
2023/03/02 09:56:12;;;;;;;10.93;5.50;;;4.00;87.70;;;;;;5092517;28;20043;-64
2023/03/02 09:58:40;;;;;;;11.30;5.25;;;4.10;85.40;;;;;;5086734;27;20847;-64
2023/03/02 10:01:14;;;;;;;11.02;3.95;;;4.20;86.30;;;;;;5087853;28;20415;-66
2023/03/02 10:04:01;;;;;;;9.27;4.82;;;4.20;84.40;;;;;;5088175;28;20291;-65
2023/03/02 10:06:28;;;;;;;15.23;5.10;;;4.20;83.20;;;;;;5087767;28;20044;-64
2023/03/02 10:08:55;;;;;;;8.88;4.70;;;4.30;83.00;;;;;;5091741;28;20044;-66
2023/03/02 10:11:35;;;;;;;13.20;5.30;;;4.20;83.70;;;;;;5088726;28;20105;-63
2023/03/02 10:14:24;;;;;;;11.40;5.22;;;4.30;82.80;;;;;;5088660;28;20031;-63
2023/03/02 10:17:16;;;;;;;8.82;4.30;;;4.50;84.10;;;;;;5090011;28;20044;-64
2023/03/02 10:19:55;;;;;;;16.77;5.10;;;4.40;83.30;;;;;;5084384;28;20584;-63
2023/03/02 10:22:33;;;;;;;9.30;4.65;;;4.30;82.80;;;;;;5086612;27;20177;-63
2023/03/02 10:25:08;;;;;;;8.18;4.38;;;4.40;82.70;;;;;;5088517;28;20088;-64
2023/03/02 10:27:39;;;;;;;11.60;4.82;;;4.50;82.50;;;;;;5091382;28;20055;-64
2023/03/02 10:30:32;;;;;;;9.85;4.85;;;4.60;82.20;;;;;;5095992;28;20059;-64
2023/03/02 10:33:06;;;;;;;11.27;4.70;;;4.60;81.70;;;;;;5096337;28;20104;-62
2023/03/02 10:35:35;;;;;;;9.02;3.92;;;4.60;79.70;;;;;;5099864;28;20044;-66
2023/03/02 10:38:11;;;;;;;9.88;4.68;;;4.60;82.10;;;;;;5092321;28;20039;-63
2023/03/02 10:40:47;;;;;;;8.32;4.10;;;4.70;81.00;;;;;;5100519;28;20103;-64
2023/03/02 10:43:50;;;;;;;9.27;4.68;;;4.60;80.60;;;;;;5085033;28;20035;-62
2023/03/02 10:46:15;;;;;;;8.90;4.22;;;4.70;82.60;;;;;;5086625;28;20127;-63
2023/03/02 10:48:47;;;;;;;11.25;4.88;;;4.80;79.10;;;;;;5087077;28;20335;-63
2023/03/02 10:51:22;;;;;;;11.70;4.68;;;5.00;79.80;;;;;;5092457;28;20388;-62
2023/03/02 10:53:48;;;;;;;15.85;4.50;;;5.10;76.00;;;;;;5089660;28;20042;-63
2023/03/02 10:56:19;;;;;;;13.77;5.13;;;5.30;84.50;;;;;;5089157;28;20152;-64
2023/03/02 10:58:45;;;;;;;8.20;4.78;;;5.50;80.80;;;;;;5098781;28;20040;-62
2023/03/02 11:01:18;;;;;;;11.32;4.82;;;5.40;76.20;;;;;;5093235;28;20054;-62
2023/03/02 11:03:59;;;;;;;15.57;4.88;;;5.30;80.80;;;;;;5094410;28;20134;-61
2023/03/02 11:06:25;;;;;;;9.75;4.55;;;5.50;82.80;;;;;;5093964;28;20040;-63
2023/03/02 11:09:07;;;;;;;12.38;4.88;;;5.60;82.10;;;;;;5094174;28;20043;-63
2023/03/02 11:11:33;;;;;;;11.32;5.03;;;5.70;83.90;;;;;;5095535;28;20028;-64
2023/03/02 11:14:27;;;;;;;11.75;5.10;;;5.70;82.20;;;;;;5094075;28;20031;-64
2023/03/02 11:16:54;;;;;;;12.90;4.57;;;5.60;77.60;;;;;;5086070;28;20039;-64
2023/03/02 11:19:33;;;;;;;8.88;4.57;;;5.70;78.60;;;;;;5096988;28;20031;-64
2023/03/02 11:22:19;;;;;;;9.07;4.68;;;5.70;77.70;;;;;;5106766;28;20115;-64
2023/03/02 11:24:49;;;;;;;8.02;4.20;;;5.60;75.90;;;;;;5101699;28;20126;-63
2023/03/02 11:27:23;;;;;;;9.82;4.55;;;5.60;78.70;;;;;;5099564;28;20047;-63
2023/03/02 11:29:57;;;;;;;9.23;4.97;;;5.60;75.70;;;;;;5101630;28;20044;-64
2023/03/02 11:32:56;;;;;;;11.43;4.55;;;5.70;76.50;;;;;;5099424;28;20093;-63
2023/03/02 11:35:46;;;;;;;7.97;4.50;;;5.80;78.00;;;;;;5100098;28;20059;-64
2023/03/02 11:38:40;;;;;;;10.55;4.47;;;5.90;83.80;;;;;;5100610;28;20567;-63
2023/03/02 11:41:16;;;;;;;9.88;4.63;;;6.00;74.70;;;;;;5100063;28;20047;-62
2023/03/02 11:43:41;;;;;;;9.32;4.88;;;6.00;78.30;;;;;;5100423;28;20134;-62
2023/03/02 11:46:16;;;;;;;10.40;4.68;;;5.90;73.30;;;;;;5096515;28;20140;-63
2023/03/02 11:48:47;;;;;;;10.00;4.60;;;5.70;74.60;;;;;;5099380;28;20042;-62
2023/03/02 11:51:17;;;;;;;9.02;4.65;;;5.70;77.80;;;;;;5098396;28;20055;-63
2023/03/02 11:53:56;;;;;;;11.60;4.85;;;5.80;79.00;;;;;;5095193;28;20499;-61
2023/03/02 11:56:22;;;;;;;10.30;4.60;;;5.70;74.90;;;;;;5093967;28;20237;-61
2023/03/02 11:58:55;;;;;;;8.18;4.40;;;5.70;75.90;;;;;;5095816;28;20032;-63
2023/03/02 12:01:23;;;;;;;12.07;5.35;;;5.70;73.70;;;;;;5092324;28;20042;-63
2023/03/02 12:03:49;;;;;;;8.57;4.10;;;5.70;77.40;;;;;;5084750;28;20086;-62
2023/03/02 12:06:21;;;;;;;12.38;5.15;;;6.00;82.60;;;;;;5086021;28;20055;-63
2023/03/02 12:08:50;;;;;;;10.35;4.72;;;6.10;79.40;;;;;;5086650;28;20036;-63
2023/03/02 12:11:15;;;;;;;11.07;5.15;;;6.00;80.50;;;;;;5089582;28;20055;-61
2023/03/02 12:13:49;;;;;;;12.02;4.95;;;5.90;78.50;;;;;;5088789;28;20471;-63
2023/03/02 12:16:22;;;;;;;9.52;4.30;;;6.00;78.10;;;;;;5094985;28;20055;-62
2023/03/02 12:18:49;;;;;;;10.48;4.40;;;6.10;79.30;;;;;;5090703;28;20051;-62
2023/03/02 12:21:24;;;;;;;8.23;4.25;;;6.10;76.00;;;;;;5092529;28;20043;-63
2023/03/02 12:23:50;;;;;;;9.63;4.40;;;6.00;74.60;;;;;;5088039;28;20042;-63
2023/03/02 12:26:18;;;;;;;12.02;5.45;;;6.10;79.60;;;;;;5091420;28;20032;-62
2023/03/02 12:29:06;;;;;;;13.52;4.78;;;6.20;76.40;;;;;;5094665;28;20035;-63
2023/03/02 12:31:50;;;;;;;10.32;4.80;;;6.30;79.80;;;;;;5093734;28;20036;-62
2023/03/02 12:34:31;;;;;;;9.90;4.78;;;6.50;78.90;;;;;;5092805;28;20266;-62
2023/03/02 12:37:03;;;;;;;10.02;5.30;;;6.40;77.50;;;;;;5100024;28;20055;-62
2023/03/02 12:39:29;;;;;;;8.75;4.47;;;6.30;81.00;;;;;;5093899;28;20040;-63
2023/03/02 12:42:04;;;;;;;9.05;4.40;;;6.30;82.80;;;;;;5099520;28;20044;-63
2023/03/02 12:44:55;;;;;;;11.73;4.57;;;6.40;78.50;;;;;;5098432;27;20036;-63
2023/03/02 12:47:27;;;;;;;8.73;4.15;;;6.40;80.00;;;;;;5096657;28;20036;-62
2023/03/02 12:50:00;;;;;;;8.05;4.00;;;6.40;81.40;;;;;;5099245;28;20039;-62
2023/03/02 12:52:29;;;;;;;8.38;4.40;;;6.30;83.30;;;;;;5095634;28;20700;-63
2023/03/02 12:55:19;;;;;;;8.50;4.03;;;6.30;84.70;;;;;;5098134;28;20028;-62